06:43
Airports
History
Links
Donate
Help keep this website running!
PayPal
Bitcoin
This page is community maintained. The information is intended for PC simulator navigation or reference.
Always use approved charts for navigation.
Q32
Chinle
Chinle (Q32)
Chinle, Arizona, United States (86503)
4
Lat/Lng:36° 9' 15.02" N / 109° 33' 2.39" W
36.154171 / -109.550663
Elevation:5515'ft / 1681mMSL
ID / ICAO:Q32
Runways:1
Longest:17-35
Dirt 1,288m / 4,224ft
Nearby Weather05:53 GMT 2017-12-12
Nearby weather at KRQE, Window Rock located 44.0 nautical miles from Q32
Altimeter: 30.48
Visibility: 10.0 statute miles
Wind: 0 knots (from 000°)
Temp: -9°c / 16°f
Humidity: 33.8%

METAR: KRQE 120553Z AUTO 00000KT 10SM CLR M09/M22 A3048 RMK AO2 SLP320 T10891222 10078 21094 51008 TSNO

(Powered by phpweather)
Nearby VORs <50NM
Nearby NDBs
Runway 17 / 35
Dimensions:1287.5 x 18.3m 4224' x 60'ft
Surface:Dirt
Runway 17 [A]Runway 35 [B]
Heading:183°TH 003°TH
Lat:
Lng:
36° 9' 35.72"N
109° 33' 1.04"W
36° 8' 54.31"N
109° 33' 3.73"W
User Notes and Comments
36° 9' 15.02" N / 109° 33' 2.39" W
Distance To
Airport ID:
Nearby Airports
(U) Chinle Muni 3.4 NM
E91 SSW 204°
4 Lukachukai 23.6 NM
90V NE 43°
4 Ganado 31.4 NM
85V S 175°
4 Pinon 38.4 NM
93V W 263°
4 Rock Point 40.1 NM
94V N 354°
(R) Sanostee 42.6 NM
NM27 ENE 64°
(U) Window Rock 44.0 NM
KRQE ( WX ) SE 142°
VFR Chart
Flight Planning at SkyVector.com